createdAt,value
2018-08-18T00:02:13.865Z,63.70
2018-08-18T00:04:41.100Z,63.60
2018-08-18T00:07:08.372Z,63.70
2018-08-18T00:09:35.617Z,63.60
2018-08-18T00:12:02.904Z,63.50
2018-08-18T00:14:30.713Z,63.30
2018-08-18T00:16:58.000Z,63.50
2018-08-18T00:19:25.922Z,63.40
2018-08-18T00:21:53.140Z,63.10
2018-08-18T00:24:20.374Z,63.30
2018-08-18T00:26:47.596Z,63.30
2018-08-18T00:29:14.767Z,63.10
2018-08-18T00:31:43.112Z,63.20
2018-08-18T00:34:10.329Z,63.30
2018-08-18T00:36:37.604Z,63.30
2018-08-18T00:39:08.092Z,63.00
2018-08-18T00:41:35.896Z,63.10
2018-08-18T00:44:03.201Z,63.10
2018-08-18T00:46:31.628Z,63.20
2018-08-18T00:48:59.101Z,62.90
2018-08-18T00:51:31.033Z,62.60
2018-08-18T00:53:58.284Z,62.20
2018-08-18T00:56:25.522Z,62.50
2018-08-18T00:58:53.994Z,62.50
2018-08-18T01:01:21.329Z,62.30
2018-08-18T01:03:54.292Z,62.10
2018-08-18T01:06:27.018Z,62.00
2018-08-18T01:08:55.624Z,61.90
2018-08-18T01:11:23.048Z,61.80
2018-08-18T01:13:50.685Z,61.70
2018-08-18T01:16:17.780Z,61.60
2018-08-18T01:18:45.084Z,61.30
2018-08-18T01:21:12.305Z,61.40
2018-08-18T01:23:39.543Z,61.50
2018-08-18T01:26:06.920Z,61.50
2018-08-18T01:28:34.141Z,61.40
2018-08-18T01:31:12.937Z,61.50
2018-08-18T01:33:40.156Z,61.60
2018-08-18T01:36:07.336Z,61.40
2018-08-18T01:38:36.069Z,61.70
2018-08-18T01:41:21.072Z,61.40
2018-08-18T01:44:23.732Z,61.20
2018-08-18T01:46:52.039Z,61.20
2018-08-18T01:49:20.028Z,61.10
2018-08-18T01:51:47.280Z,60.90
2018-08-18T01:54:14.540Z,60.90
2018-08-18T01:56:41.788Z,61.00
2018-08-18T01:59:08.973Z,60.60
2018-08-18T02:01:36.223Z,60.50
2018-08-18T02:04:03.431Z,60.30
2018-08-18T02:06:30.663Z,60.50
2018-08-18T02:08:58.177Z,60.50
2018-08-18T02:11:26.264Z,60.50
2018-08-18T02:13:54.980Z,60.30
2018-08-18T02:16:23.452Z,60.30
2018-08-18T02:18:50.760Z,60.10
2018-08-18T02:21:31.191Z,60.20
2018-08-18T02:24:01.736Z,60.60
2018-08-18T02:26:28.895Z,60.50
2018-08-18T02:28:56.640Z,60.50
2018-08-18T02:31:24.041Z,60.50
2018-08-18T02:33:52.032Z,60.70
2018-08-18T02:36:19.276Z,60.70
2018-08-18T02:38:52.421Z,60.50
2018-08-18T02:41:19.636Z,60.40
2018-08-18T02:43:46.859Z,60.40
2018-08-18T02:46:24.145Z,60.40
2018-08-18T02:48:51.432Z,60.50
2018-08-18T02:51:18.632Z,60.40
2018-08-18T02:53:45.807Z,60.30
2018-08-18T02:56:13.017Z,60.10
2018-08-18T02:58:41.756Z,60.20
2018-08-18T03:01:08.990Z,60.00
2018-08-18T03:03:36.192Z,60.50
2018-08-18T03:06:09.209Z,60.00
2018-08-18T03:08:36.436Z,59.80
2018-08-18T03:11:04.437Z,59.70
2018-08-18T03:13:31.665Z,59.70
2018-08-18T03:16:00.101Z,59.60
2018-08-18T03:18:44.054Z,59.50
2018-08-18T03:21:11.439Z,59.60
2018-08-18T03:23:49.005Z,59.70
2018-08-18T03:26:17.164Z,59.40
2018-08-18T03:28:48.940Z,59.30
2018-08-18T03:31:16.162Z,59.30
2018-08-18T03:33:43.409Z,59.10
2018-08-18T03:36:23.394Z,59.20
2018-08-18T03:38:51.024Z,59.40
2018-08-18T03:41:18.204Z,59.20
2018-08-18T03:43:45.376Z,59.10
2018-08-18T03:46:12.559Z,59.00
2018-08-18T03:48:39.780Z,58.90
2018-08-18T03:51:07.045Z,58.90
2018-08-18T03:53:34.197Z,58.90
2018-08-18T03:56:01.457Z,58.80
2018-08-18T03:58:38.828Z,58.70
2018-08-18T04:01:06.075Z,58.60
2018-08-18T04:03:33.262Z,58.50
2018-08-18T04:06:00.501Z,58.50
2018-08-18T04:08:27.716Z,58.30
2018-08-18T04:10:54.961Z,58.50
2018-08-18T04:13:22.196Z,58.20
2018-08-18T04:15:49.436Z,58.10
2018-08-18T04:18:16.648Z,58.10
2018-08-18T04:20:43.788Z,58.00
2018-08-18T04:23:10.932Z,57.80
2018-08-18T04:25:38.175Z,57.60
2018-08-18T04:28:05.410Z,57.40
2018-08-18T04:30:32.604Z,57.40
2018-08-18T04:33:03.084Z,57.10
2018-08-18T04:35:31.162Z,57.20
2018-08-18T04:37:59.832Z,57.00
2018-08-18T04:40:27.077Z,56.70
2018-08-18T04:42:57.351Z,57.30
2018-08-18T04:45:24.573Z,56.70
2018-08-18T04:47:51.788Z,56.60
2018-08-18T04:50:20.573Z,57.40
2018-08-18T04:52:48.344Z,56.60
2018-08-18T04:55:17.273Z,56.70
2018-08-18T04:57:44.531Z,56.70
2018-08-18T05:00:12.899Z,56.60
2018-08-18T05:02:45.954Z,56.50
2018-08-18T05:05:13.457Z,56.50
2018-08-18T05:07:46.996Z,56.30
2018-08-18T05:10:14.996Z,56.20
2018-08-18T05:12:42.251Z,56.30
2018-08-18T05:15:09.465Z,56.10
2018-08-18T05:17:36.722Z,56.10
2018-08-18T05:20:24.011Z,56.10
2018-08-18T05:22:51.264Z,55.80
2018-08-18T05:25:21.052Z,55.70
2018-08-18T05:27:48.289Z,55.80
2018-08-18T05:30:15.537Z,55.70
2018-08-18T05:32:42.772Z,55.60
2018-08-18T05:35:10.044Z,55.60
2018-08-18T05:37:38.232Z,55.40
2018-08-18T05:40:06.116Z,55.40
2018-08-18T05:42:33.395Z,55.50
2018-08-18T05:45:15.522Z,55.90
2018-08-18T05:47:42.890Z,55.50
2018-08-18T05:50:09.960Z,55.40
2018-08-18T05:52:37.115Z,55.30
2018-08-18T05:55:04.356Z,54.80
2018-08-18T05:57:31.556Z,55.10
2018-08-18T05:59:58.797Z,55.10
2018-08-18T06:02:26.036Z,55.00
2018-08-18T06:04:53.285Z,54.90
2018-08-18T06:07:20.505Z,55.20
2018-08-18T06:09:47.757Z,54.80
2018-08-18T06:12:18.923Z,54.70
2018-08-18T06:14:47.820Z,54.50
2018-08-18T06:17:20.869Z,54.80
2018-08-18T06:19:48.071Z,54.80
2018-08-18T06:22:15.347Z,54.50
2018-08-18T06:24:42.605Z,54.80
2018-08-18T06:27:10.424Z,54.70
2018-08-18T06:29:37.636Z,54.40
2018-08-18T06:32:07.004Z,54.60
2018-08-18T06:34:34.285Z,54.40
2018-08-18T06:37:01.580Z,54.20
2018-08-18T06:39:51.540Z,54.30
2018-08-18T06:42:44.868Z,54.10
2018-08-18T06:45:15.128Z,54.50
2018-08-18T06:47:42.872Z,54.10
2018-08-18T06:50:12.180Z,54.00
2018-08-18T06:52:39.460Z,54.00
2018-08-18T06:55:08.503Z,53.90
2018-08-18T06:57:49.874Z,54.00
2018-08-18T07:00:19.119Z,53.80
2018-08-18T07:02:46.441Z,53.80
2018-08-18T07:05:15.084Z,54.00
2018-08-18T07:07:43.025Z,53.50
2018-08-18T07:10:24.002Z,53.80
2018-08-18T07:12:53.220Z,53.30
2018-08-18T07:15:22.276Z,53.30
2018-08-18T07:17:50.396Z,53.30
2018-08-18T07:20:18.129Z,53.20
2018-08-18T07:22:45.336Z,53.00
2018-08-18T07:25:13.058Z,53.00
2018-08-18T07:27:40.274Z,52.90
2018-08-18T07:30:07.594Z,53.00
2018-08-18T07:32:35.236Z,53.20
2018-08-18T07:35:02.765Z,53.00
2018-08-18T07:37:30.355Z,53.00
2018-08-18T07:39:57.815Z,53.00
2018-08-18T07:42:25.110Z,53.20
2018-08-18T07:44:52.448Z,53.00
2018-08-18T07:47:24.275Z,52.70
2018-08-18T07:49:51.840Z,52.70
2018-08-18T07:52:19.175Z,53.00
2018-08-18T07:54:46.372Z,52.80
2018-08-18T07:57:13.616Z,52.90
2018-08-18T07:59:40.889Z,52.90
2018-08-18T08:02:09.004Z,52.80
2018-08-18T08:04:36.228Z,52.90
2018-08-18T08:07:03.453Z,53.40
2018-08-18T08:09:30.648Z,52.80
2018-08-18T08:11:57.829Z,52.70
2018-08-18T08:14:25.056Z,53.70
2018-08-18T08:16:52.387Z,53.40
2018-08-18T08:19:19.668Z,53.50
2018-08-18T08:21:46.836Z,52.70
2018-08-18T08:24:14.037Z,52.70
2018-08-18T08:26:41.304Z,52.50
2018-08-18T08:29:08.585Z,52.00
2018-08-18T08:31:35.809Z,51.90
2018-08-18T08:34:03.060Z,52.00
2018-08-18T08:36:30.279Z,52.10
2018-08-18T08:38:59.031Z,52.30
2018-08-18T08:41:29.688Z,52.10
2018-08-18T08:43:56.893Z,52.10
2018-08-18T08:46:24.152Z,52.00
2018-08-18T08:48:53.272Z,52.20
2018-08-18T08:51:20.536Z,52.00
2018-08-18T08:53:47.801Z,52.00
2018-08-18T08:56:15.938Z,52.00
2018-08-18T08:58:48.185Z,52.00
2018-08-18T09:01:15.412Z,52.00
2018-08-18T09:03:42.648Z,52.10
2018-08-18T09:06:09.952Z,52.10
2018-08-18T09:08:38.107Z,51.90
2018-08-18T09:11:05.280Z,52.10
2018-08-18T09:13:32.449Z,52.10
2018-08-18T09:15:59.637Z,52.00
2018-08-18T09:18:26.832Z,52.30
2018-08-18T09:20:54.169Z,52.60
2018-08-18T09:23:21.457Z,52.40
2018-08-18T09:25:48.803Z,52.10
2018-08-18T09:28:15.944Z,52.10
2018-08-18T09:30:43.143Z,52.10
2018-08-18T09:33:10.435Z,52.20
2018-08-18T09:35:54.244Z,52.20
2018-08-18T09:38:21.513Z,51.90
2018-08-18T09:40:48.859Z,51.70
2018-08-18T09:43:22.768Z,51.60
2018-08-18T09:45:50.375Z,51.70
2018-08-18T09:48:17.576Z,51.70
2018-08-18T09:50:45.024Z,51.60
2018-08-18T09:53:12.284Z,51.60
2018-08-18T09:55:39.540Z,51.60
2018-08-18T09:58:07.473Z,51.60
2018-08-18T10:00:39.085Z,51.90
2018-08-18T10:03:06.383Z,51.60
2018-08-18T10:05:33.681Z,51.60
2018-08-18T10:08:01.340Z,51.90
2018-08-18T10:10:28.939Z,51.70
2018-08-18T10:12:56.169Z,52.00
2018-08-18T10:15:23.548Z,52.00
2018-08-18T10:17:50.696Z,52.00
2018-08-18T10:20:17.992Z,51.80
2018-08-18T10:22:45.316Z,51.90
2018-08-18T10:25:12.534Z,51.60
2018-08-18T10:27:39.771Z,51.40
2018-08-18T10:30:07.008Z,51.40
2018-08-18T10:32:38.772Z,51.10
2018-08-18T10:35:06.069Z,51.10
2018-08-18T10:37:33.281Z,51.20
2018-08-18T10:40:06.897Z,51.30
2018-08-18T10:42:34.114Z,51.10
2018-08-18T10:45:02.510Z,51.20
2018-08-18T10:47:29.800Z,51.10
2018-08-18T10:50:08.760Z,50.80
2018-08-18T10:52:47.576Z,51.00
2018-08-18T10:55:15.951Z,50.80
2018-08-18T10:57:54.567Z,50.50
2018-08-18T11:00:23.141Z,50.30
2018-08-18T11:02:52.560Z,50.30
2018-08-18T11:05:20.312Z,50.40
2018-08-18T11:07:54.304Z,50.70
2018-08-18T11:10:22.606Z,51.00
2018-08-18T11:12:49.879Z,50.40
2018-08-18T11:15:17.192Z,50.00
2018-08-18T11:17:44.472Z,49.70
2018-08-18T11:20:15.270Z,49.50
2018-08-18T11:22:54.648Z,49.70
2018-08-18T11:25:23.697Z,49.80
2018-08-18T11:27:51.356Z,49.80
2018-08-18T11:30:19.985Z,50.20
2018-08-18T11:32:47.448Z,50.00
2018-08-18T11:35:15.948Z,49.80
2018-08-18T11:37:53.232Z,49.60
2018-08-18T11:40:21.155Z,49.40
2018-08-18T11:42:48.900Z,49.30
2018-08-18T11:45:16.572Z,49.20
2018-08-18T11:47:51.960Z,49.30
2018-08-18T11:50:19.100Z,49.00
2018-08-18T11:52:49.288Z,49.30
2018-08-18T11:55:16.502Z,49.60
2018-08-18T11:57:43.736Z,49.60
2018-08-18T12:00:11.014Z,49.60
2018-08-18T12:02:38.260Z,49.70
2018-08-18T12:05:05.468Z,49.40
2018-08-18T12:07:32.715Z,49.20
2018-08-18T12:10:00.021Z,49.70
2018-08-18T12:12:27.346Z,49.90
2018-08-18T12:14:54.992Z,49.20
2018-08-18T12:17:22.247Z,48.90
2018-08-18T12:19:53.025Z,49.10
2018-08-18T12:22:20.273Z,49.40
2018-08-18T12:24:52.097Z,49.80
2018-08-18T12:27:19.315Z,49.80
2018-08-18T12:29:46.610Z,49.80
2018-08-18T12:32:19.480Z,50.10
2018-08-18T12:34:46.712Z,50.20
2018-08-18T12:37:14.343Z,50.30
2018-08-18T12:39:41.505Z,50.60
2018-08-18T12:42:11.612Z,50.60
2018-08-18T12:44:38.860Z,50.40
2018-08-18T12:47:06.116Z,50.00
2018-08-18T12:49:33.409Z,49.40
2018-08-18T12:52:01.095Z,49.40
2018-08-18T12:54:28.345Z,49.60
2018-08-18T12:56:55.524Z,49.90
2018-08-18T12:59:22.701Z,50.00
2018-08-18T13:01:49.973Z,49.70
2018-08-18T13:04:18.853Z,50.00
2018-08-18T13:06:48.173Z,50.00
2018-08-18T13:09:17.899Z,49.60
2018-08-18T13:11:46.369Z,49.70
2018-08-18T13:14:15.827Z,49.00
2018-08-18T13:16:43.047Z,49.00
2018-08-18T13:19:10.236Z,49.30
2018-08-18T13:21:37.484Z,48.90
2018-08-18T13:24:04.752Z,49.30
2018-08-18T13:26:32.034Z,49.60
2018-08-18T13:28:59.294Z,49.90
2018-08-18T13:31:32.445Z,49.90
2018-08-18T13:33:59.649Z,50.30
2018-08-18T13:36:26.872Z,50.40
2018-08-18T13:38:54.077Z,50.00
2018-08-18T13:41:22.572Z,50.00
2018-08-18T13:43:49.797Z,49.30
2018-08-18T13:46:18.130Z,49.00
2018-08-18T13:48:51.871Z,49.40
2018-08-18T13:51:20.315Z,49.50
2018-08-18T13:53:51.032Z,48.70
2018-08-18T13:56:19.081Z,48.40
2018-08-18T13:58:48.996Z,48.30
2018-08-18T14:01:27.733Z,47.90
2018-08-18T14:03:54.984Z,48.20
2018-08-18T14:06:22.232Z,48.30
2018-08-18T14:08:54.380Z,47.80
2018-08-18T14:11:21.607Z,47.80
2018-08-18T14:13:48.878Z,47.30
2018-08-18T14:16:16.179Z,47.10
2018-08-18T14:18:43.352Z,47.00
2018-08-18T14:21:11.339Z,47.20
2018-08-18T14:23:38.515Z,47.60
2018-08-18T14:26:05.729Z,48.60
2018-08-18T14:28:33.065Z,48.20
2018-08-18T14:31:00.232Z,47.70
2018-08-18T14:33:27.440Z,47.00
2018-08-18T14:36:00.484Z,47.40
2018-08-18T14:38:27.713Z,47.50
2018-08-18T14:40:55.010Z,46.90
2018-08-18T14:43:27.628Z,46.90
2018-08-18T14:45:55.593Z,47.00
2018-08-18T14:48:22.841Z,47.40
2018-08-18T14:50:50.024Z,48.00
2018-08-18T14:53:23.933Z,47.00
2018-08-18T14:55:51.817Z,47.00
2018-08-18T14:58:24.769Z,46.40
2018-08-18T15:00:56.553Z,46.10
2018-08-18T15:03:23.732Z,45.80
2018-08-18T15:05:50.946Z,45.50
2018-08-18T15:08:18.176Z,45.30
2018-08-18T15:10:46.016Z,45.40
2018-08-18T15:13:13.612Z,45.40
2018-08-18T15:15:41.003Z,45.60
2018-08-18T15:18:11.781Z,45.60
2018-08-18T15:20:39.527Z,45.90
2018-08-18T15:23:07.632Z,46.20
2018-08-18T15:25:35.649Z,45.80
2018-08-18T15:28:06.043Z,45.90
2018-08-18T15:30:34.380Z,45.80
2018-08-18T15:33:01.604Z,45.50
2018-08-18T15:35:28.800Z,45.40
2018-08-18T15:37:57.085Z,45.30
2018-08-18T15:40:26.192Z,45.10
2018-08-18T15:42:53.953Z,44.80
2018-08-18T15:45:21.223Z,44.50
2018-08-18T15:47:48.525Z,44.30
2018-08-18T15:50:15.826Z,44.60
2018-08-18T15:52:43.216Z,44.60
2018-08-18T15:55:10.434Z,44.90
2018-08-18T15:57:37.681Z,44.50
2018-08-18T16:00:29.696Z,44.10
2018-08-18T16:02:57.864Z,43.80
2018-08-18T16:05:25.532Z,44.20
2018-08-18T16:07:53.275Z,44.20
2018-08-18T16:10:20.757Z,44.00
2018-08-18T16:12:48.407Z,44.10
2018-08-18T16:15:15.598Z,43.80
2018-08-18T16:17:42.860Z,44.10
2018-08-18T16:20:16.644Z,44.10
2018-08-18T16:22:43.876Z,44.20
2018-08-18T16:25:23.380Z,44.40
2018-08-18T16:27:50.612Z,44.60
2018-08-18T16:30:18.865Z,43.70
2018-08-18T16:32:46.549Z,44.30
2018-08-18T16:35:13.772Z,44.10
2018-08-18T16:37:44.967Z,44.30
2018-08-18T16:40:12.205Z,44.30
2018-08-18T16:42:39.423Z,43.80
2018-08-18T16:45:06.618Z,43.50
2018-08-18T16:47:38.388Z,43.50
2018-08-18T16:50:05.601Z,43.70
2018-08-18T16:52:32.939Z,44.20
2018-08-18T16:55:00.252Z,43.40
2018-08-18T16:57:27.461Z,43.70
2018-08-18T16:59:54.688Z,43.60
2018-08-18T17:02:32.357Z,43.20
2018-08-18T17:04:59.745Z,42.90
2018-08-18T17:07:27.279Z,42.90
2018-08-18T17:09:54.740Z,42.30
2018-08-18T17:12:24.367Z,42.60
2018-08-18T17:14:51.622Z,42.30
2018-08-18T17:17:21.231Z,42.30
2018-08-18T17:19:48.421Z,41.90
2018-08-18T17:22:15.662Z,42.20
2018-08-18T17:24:42.913Z,42.40
2018-08-18T17:27:10.214Z,42.10
2018-08-18T17:29:39.744Z,42.00
2018-08-18T17:32:07.782Z,41.50
2018-08-18T17:34:34.968Z,41.60
2018-08-18T17:37:02.459Z,41.40
2018-08-18T17:39:29.669Z,41.50
2018-08-18T17:41:57.300Z,41.30
2018-08-18T17:44:24.615Z,40.80
2018-08-18T17:46:52.917Z,41.10
2018-08-18T17:49:21.620Z,40.60
2018-08-18T17:51:55.640Z,40.30
2018-08-18T17:54:22.826Z,40.30
2018-08-18T17:56:50.048Z,40.20
2018-08-18T17:59:17.388Z,40.00
2018-08-18T18:01:56.604Z,40.00
2018-08-18T18:04:25.276Z,39.80
2018-08-18T18:06:52.505Z,39.80
2018-08-18T18:09:20.282Z,39.90
2018-08-18T18:11:48.272Z,39.80
2018-08-18T18:14:15.508Z,39.40
2018-08-18T18:16:42.793Z,39.50
2018-08-18T18:19:10.049Z,39.50
2018-08-18T18:21:37.312Z,39.50
2018-08-18T18:24:04.548Z,39.40
2018-08-18T18:26:31.805Z,39.20
2018-08-18T18:28:59.072Z,39.40
2018-08-18T18:31:26.312Z,39.50
2018-08-18T18:34:03.518Z,39.60
2018-08-18T18:36:31.853Z,39.60
2018-08-18T18:38:59.141Z,39.50
2018-08-18T18:41:26.940Z,39.60
2018-08-18T18:43:55.440Z,39.60
2018-08-18T18:46:22.680Z,39.70
2018-08-18T18:48:49.886Z,39.80
2018-08-18T18:51:17.068Z,40.00
2018-08-18T18:53:47.341Z,40.10
2018-08-18T18:56:14.572Z,40.10
2018-08-18T18:58:41.857Z,40.80
2018-08-18T19:01:09.156Z,40.40
2018-08-18T19:03:36.325Z,40.30
2018-08-18T19:06:03.586Z,40.40
2018-08-18T19:08:30.901Z,40.40
2018-08-18T19:11:01.425Z,40.40
2018-08-18T19:13:28.624Z,40.60
2018-08-18T19:15:55.877Z,40.50
2018-08-18T19:18:22.977Z,40.50
2018-08-18T19:20:50.244Z,40.70
2018-08-18T19:23:18.470Z,40.60
2018-08-18T19:25:47.054Z,40.80
2018-08-18T19:28:21.445Z,40.80
2018-08-18T19:30:48.672Z,40.70
2018-08-18T19:33:16.500Z,40.80
2018-08-18T19:35:45.658Z,40.80
2018-08-18T19:38:13.444Z,40.90
2018-08-18T19:40:42.086Z,41.10
2018-08-18T19:43:14.229Z,41.10
2018-08-18T19:45:41.800Z,41.20
2018-08-18T19:48:09.411Z,41.10
2018-08-18T19:50:37.271Z,41.20
2018-08-18T19:53:09.609Z,41.20
2018-08-18T19:55:36.784Z,41.20
2018-08-18T19:58:04.245Z,41.20
2018-08-18T20:00:31.467Z,41.20
2018-08-18T20:03:01.849Z,41.20
2018-08-18T20:05:29.040Z,42.00
2018-08-18T20:07:56.309Z,41.30
2018-08-18T20:10:23.533Z,41.50
2018-08-18T20:12:50.804Z,41.60
2018-08-18T20:15:18.071Z,41.90
2018-08-18T20:17:45.316Z,41.70
2018-08-18T20:20:16.596Z,41.80
2018-08-18T20:22:43.794Z,42.10
2018-08-18T20:25:11.013Z,42.60
2018-08-18T20:27:38.252Z,42.50
2018-08-18T20:30:05.508Z,42.70
2018-08-18T20:32:32.723Z,42.80
2018-08-18T20:34:59.924Z,43.30
2018-08-18T20:37:27.136Z,43.30
2018-08-18T20:39:54.997Z,43.40
2018-08-18T20:42:28.080Z,43.40
2018-08-18T20:44:57.589Z,43.40
2018-08-18T20:47:26.212Z,43.80
2018-08-18T20:49:53.769Z,44.00
2018-08-18T20:52:21.037Z,44.00
2018-08-18T20:54:48.217Z,44.30
2018-08-18T20:57:15.464Z,44.20
2018-08-18T20:59:42.658Z,44.20
2018-08-18T21:02:09.897Z,44.20
2018-08-18T21:04:37.588Z,44.30
2018-08-18T21:07:04.786Z,44.20
2018-08-18T21:09:32.221Z,44.30
2018-08-18T21:11:59.396Z,44.00
2018-08-18T21:14:27.620Z,44.00
2018-08-18T21:16:54.925Z,44.00
2018-08-18T21:19:25.172Z,43.90
2018-08-18T21:21:53.678Z,43.80
2018-08-18T21:24:20.800Z,43.60
2018-08-18T21:26:48.280Z,44.00
2018-08-18T21:29:15.508Z,43.90
2018-08-18T21:31:44.686Z,43.80
2018-08-18T21:34:11.860Z,44.20
2018-08-18T21:36:39.043Z,44.20
2018-08-18T21:39:07.989Z,44.20
2018-08-18T21:41:35.584Z,44.80
2018-08-18T21:44:03.856Z,44.90
2018-08-18T21:46:31.098Z,44.90
2018-08-18T21:49:00.224Z,44.90
2018-08-18T21:51:27.409Z,44.80
2018-08-18T21:53:54.670Z,44.80
2018-08-18T21:56:21.897Z,44.90
2018-08-18T21:58:49.428Z,44.90
2018-08-18T22:01:17.980Z,44.70
2018-08-18T22:03:45.872Z,44.80
2018-08-18T22:06:13.445Z,45.00
2018-08-18T22:08:40.737Z,45.10
2018-08-18T22:11:11.697Z,45.20
2018-08-18T22:13:44.705Z,45.10
2018-08-18T22:16:11.880Z,44.90
2018-08-18T22:18:52.548Z,44.90
2018-08-18T22:21:25.224Z,45.10
2018-08-18T22:23:52.421Z,44.80
2018-08-18T22:26:20.424Z,45.10
2018-08-18T22:28:52.414Z,45.10
2018-08-18T22:31:19.645Z,45.00
2018-08-18T22:33:46.891Z,44.90
2018-08-18T22:36:14.139Z,44.80
2018-08-18T22:38:41.345Z,45.50
2018-08-18T22:41:08.540Z,45.30
2018-08-18T22:43:35.728Z,44.90
2018-08-18T22:46:02.959Z,44.90
2018-08-18T22:48:30.231Z,44.90
2018-08-18T22:50:57.552Z,44.90
2018-08-18T22:53:24.796Z,44.90
2018-08-18T22:55:52.033Z,44.90
2018-08-18T22:58:19.244Z,44.90
2018-08-18T23:00:49.975Z,45.10
2018-08-18T23:03:17.188Z,45.30
2018-08-18T23:05:44.400Z,45.40
2018-08-18T23:08:11.698Z,45.20
2018-08-18T23:10:38.940Z,45.20
2018-08-18T23:13:06.265Z,45.30
2018-08-18T23:15:33.448Z,45.10
2018-08-18T23:18:00.754Z,45.20
2018-08-18T23:20:28.098Z,45.50
2018-08-18T23:23:00.244Z,45.50
2018-08-18T23:25:29.980Z,45.40
2018-08-18T23:27:57.528Z,45.50
2018-08-18T23:30:30.485Z,45.40
2018-08-18T23:32:57.712Z,45.80
2018-08-18T23:35:26.308Z,45.70
2018-08-18T23:37:53.768Z,45.60
2018-08-18T23:40:21.008Z,45.40
2018-08-18T23:42:48.200Z,45.80
2018-08-18T23:45:15.445Z,45.90
2018-08-18T23:47:43.908Z,46.00
2018-08-18T23:50:11.148Z,45.90
2018-08-18T23:52:54.164Z,45.80
2018-08-18T23:55:21.479Z,45.70
2018-08-18T23:57:49.676Z,45.80
